Terminal Aerodrome Forecast
Issued by NWS Melbourne, FL

Home | Current Version | Previous Version | Text Only | Print | Product List | Glossary On
Versions: 1 2 3 4 5 6 7 8 9 10 11 12
000
FTUS42 KMLB 280500
TAFDAB
TAF
KDAB 280528Z 2806/2906 00000KT 5SM BR SCT006 BKN045
      TEMPO 2808/2809 2SM BR BKN006
     FM280900 00000KT 3SM BR BKN006 OVC045
      TEMPO 2810/2812 1SM BR OVC004
     FM281400 22004KT P6SM BKN012
     FM281700 21006KT P6SM BKN035
     FM290000 19003KT P6SM BKN040=

USA.gov is the U.S. government's official web portal to all federal, state and local government web resources and services.